Terminal Aerodrome Forecast
Issued by NWS Sterling, VA

Current Version | Previous Version | Graphics & Text | Print | Product List | Glossary On
Versions: 1 2 3 4 5 6 7 8 9 10 11 12 13 14 15 16 17 18 19 20 21 22 23 24 25
924
FTUS41 KLWX 252054 AAB
TAFIAD
TAF AMD
KIAD 252054Z 2521/2624 31013KT P6SM OVC050
     FM260000 30016G26KT P6SM SCT080
     FM260900 28011G18KT P6SM SCT040
     FM262000 28010G18KT P6SM FEW250
     FM262300 28006KT P6SM FEW250=

USA.gov is the U.S. government's official web portal to all federal, state and local government web resources and services.